Time;durP1;ratioP1;P1;durP2;ratioP2;P2;SDS_P1;SDS_P2;PMS_P1;PMS_P2;Temp;Humidity;BMP_temperature;BMP_pressure;BME280_temperature;BME280_humidity;BME280_pressure;Samples;Min_cycle;Max_cycle;Signal;HPM_P1;HPM_P2
2022/01/27 00:05:51;;;;;;;34.03;21.90;;;;;;;-1.44;67.84;99981.80;1691893;84;21019;-79
2022/01/27 00:08:23;;;;;;;44.33;24.30;;;;;;;-1.48;67.83;99965.16;1679042;84;21011;-77
2022/01/27 00:13:14;;;;;;;41.63;25.20;;;;;;;-1.49;67.96;99965.68;1726931;82;21030;-75
2022/01/27 00:15:41;;;;;;;50.50;28.70;;;;;;;-1.49;67.92;99956.95;1726017;83;23286;-76
2022/01/27 00:18:14;;;;;;;48.60;29.73;;;;;;;-1.43;67.87;99962.85;1736821;82;21091;-77
2022/01/27 00:20:36;;;;;;;37.37;21.67;;;;;;;-1.40;67.49;99967.33;1725600;82;21055;-76
2022/01/27 00:23:03;;;;;;;44.83;26.23;;;;;;;-1.41;67.30;99965.67;1703982;84;21059;-76
2022/01/27 00:25:30;;;;;;;42.73;23.43;;;;;;;-1.46;67.29;99966.66;1727401;82;21048;-78
2022/01/27 00:27:56;;;;;;;53.10;28.00;;;;;;;-1.49;67.31;99964.36;1738238;82;21126;-78
2022/01/27 00:30:22;;;;;;;47.17;26.37;;;;;;;-1.48;67.31;99963.84;1716001;82;21073;-80
2022/01/27 00:32:49;;;;;;;52.57;30.70;;;;;;;-1.51;67.25;99966.83;1724870;83;21032;-76
2022/01/27 00:35:18;;;;;;;52.90;29.67;;;;;;;-1.56;67.30;99969.95;1693119;84;21080;-80
2022/01/27 00:37:44;;;;;;;55.97;30.20;;;;;;;-1.58;67.41;99961.89;1724722;82;21666;-75
2022/01/27 00:40:12;;;;;;;54.63;30.43;;;;;;;-1.63;67.46;99954.45;1677872;83;21602;-74
2022/01/27 00:42:39;;;;;;;49.47;27.57;;;;;;;-1.62;67.77;99951.32;1730883;81;21524;-78
2022/01/27 00:45:06;;;;;;;44.83;26.10;;;;;;;-1.56;67.60;99961.22;1702742;83;21074;-76
2022/01/27 00:47:33;;;;;;;52.07;27.63;;;;;;;-1.55;67.57;99958.92;1704026;82;21647;-75
2022/01/27 00:49:59;;;;;;;47.40;25.30;;;;;;;-1.66;67.70;99951.33;1689938;84;21028;-74
2022/01/27 00:52:36;;;;;;;49.20;28.43;;;;;;;-1.66;67.82;99948.69;1714788;82;21030;-75
2022/01/27 00:54:54;;;;;;;46.27;27.90;;;;;;;-1.61;67.72;99940.62;1734587;82;20952;-75
2022/01/27 01:00:03;;;;;;;47.50;28.20;;;;;;;-1.52;67.45;99946.70;1709163;83;21050;-77
2022/01/27 01:05:32;;;;;;;43.00;24.00;;;;;;;-1.49;67.49;99945.08;1706036;83;21087;-79
2022/01/27 01:07:44;;;;;;;54.60;31.50;;;;;;;-1.42;67.22;99952.14;1678548;83;21606;-73
2022/01/27 01:15:39;;;;;;;36.73;21.47;;;;;;;-1.53;67.16;99943.73;1691140;84;21067;-71
2022/01/27 01:18:23;;;;;;;39.90;22.23;;;;;;;-1.52;67.02;99947.53;1667255;84;21007;-75
2022/01/27 01:31:27;;;;;;;30.93;20.93;;;;;;;-1.50;66.37;99948.70;1726670;82;21145;-71
2022/01/27 01:33:43;;;;;;;47.30;25.30;;;;;;;-1.47;66.30;99947.86;1723807;82;20960;-71
2022/01/27 01:36:15;;;;;;;42.50;23.67;;;;;;;-1.48;66.25;99939.61;1705743;83;21023;-70
2022/01/27 01:38:44;;;;;;;39.07;22.43;;;;;;;-1.47;66.25;99941.27;1703615;83;21086;-70
2022/01/27 01:41:10;;;;;;;43.80;24.63;;;;;;;-1.46;66.21;99938.97;1722269;83;21311;-71
2022/01/27 01:43:36;;;;;;;38.07;21.73;;;;;;;-1.47;66.19;99929.40;1720633;82;21084;-71
2022/01/27 01:46:03;;;;;;;40.93;23.13;;;;;;;-1.46;66.34;99940.28;1743713;82;21058;-69
2022/01/27 01:48:29;;;;;;;48.47;25.40;;;;;;;-1.46;66.26;99937.65;1720388;82;21003;-70
2022/01/27 01:50:57;;;;;;;41.47;24.37;;;;;;;-1.50;66.21;99927.11;1704539;83;20951;-72
2022/01/27 01:53:23;;;;;;;52.13;29.30;;;;;;;-1.54;66.29;99931.07;1726024;83;21598;-71
2022/01/27 01:55:50;;;;;;;55.27;30.83;;;;;;;-1.54;66.45;99923.65;1699549;83;21181;-71
2022/01/27 01:58:16;;;;;;;39.50;25.33;;;;;;;-1.55;66.46;99925.95;1678374;84;21024;-71
2022/01/27 02:00:42;;;;;;;57.87;30.03;;;;;;;-1.58;66.58;99927.61;1705570;83;21098;-71
2022/01/27 02:03:09;;;;;;;38.30;24.13;;;;;;;-1.61;66.76;99928.75;1726178;83;21114;-70
2022/01/27 02:05:41;;;;;;;42.50;24.17;;;;;;;-1.60;66.85;99933.53;1700171;84;21035;-69
2022/01/27 02:08:29;;;;;;;48.37;27.90;;;;;;;-1.62;66.86;99942.09;1725343;82;21835;-70
2022/01/27 02:19:23;;;;;;;37.33;20.93;;;;;;;-1.70;67.20;99917.88;1728707;82;21047;-69
2022/01/27 02:21:55;;;;;;;45.37;23.20;;;;;;;-1.74;67.28;99911.30;1720923;82;21189;-71
2022/01/27 02:24:26;;;;;;;42.55;25.43;;;;;;;-1.80;67.41;99910.64;1743751;82;20900;-69
2022/01/27 02:26:52;;;;;;;41.00;24.57;;;;;;;-1.83;67.59;99907.85;1735331;82;21016;-71
2022/01/27 02:29:20;;;;;;;46.37;25.23;;;;;;;-1.82;67.79;99913.42;1700637;83;21564;-72
2022/01/27 02:31:49;;;;;;;42.83;26.10;;;;;;;-1.74;67.79;99912.63;1726057;83;21016;-73
2022/01/27 02:34:15;;;;;;;43.27;23.10;;;;;;;-1.69;67.70;99912.95;1701182;83;21661;-72
2022/01/27 02:36:42;;;;;;;41.93;25.20;;;;;;;-1.69;67.53;99908.16;1734220;82;21291;-71
2022/01/27 02:39:09;;;;;;;44.13;25.17;;;;;;;-1.75;67.60;99905.70;1664045;85;20959;-74
2022/01/27 02:41:52;;;;;;;47.80;24.77;;;;;;;-1.74;67.67;99909.16;1697131;83;21066;-72
2022/01/27 02:44:48;;;;;;;47.15;24.85;;;;;;;-1.77;67.66;99908.48;1661147;84;21611;-73
2022/01/27 02:47:16;;;;;;;47.97;30.43;;;;;;;-1.78;67.86;99901.59;1731833;82;21199;-71
2022/01/27 02:49:42;;;;;;;48.50;28.07;;;;;;;-1.76;67.94;99902.23;1725783;83;21122;-73
2022/01/27 02:52:09;;;;;;;43.17;25.63;;;;;;;-1.73;67.95;99903.73;1725769;83;20982;-71
2022/01/27 02:54:36;;;;;;;42.77;23.80;;;;;;;-1.71;67.96;99905.69;1726060;83;20999;-74
2022/01/27 02:57:04;;;;;;;41.93;25.80;;;;;;;-1.65;67.91;99904.20;1734263;82;20980;-72
2022/01/27 02:59:30;;;;;;;37.33;23.60;;;;;;;-1.66;67.77;99906.02;1686469;82;21529;-72
2022/01/27 03:01:56;;;;;;;39.50;22.73;;;;;;;-1.65;67.81;99908.16;1703120;82;20994;-73
2022/01/27 03:04:25;;;;;;;42.20;27.27;;;;;;;-1.71;67.72;99911.45;1691025;84;21019;-73
2022/01/27 03:06:51;;;;;;;45.33;24.33;;;;;;;-1.77;67.87;99918.20;1696813;83;21713;-73
2022/01/27 03:09:17;;;;;;;36.37;21.83;;;;;;;-1.80;67.97;99911.46;1658219;85;21079;-68
2022/01/27 03:11:51;;;;;;;41.23;22.13;;;;;;;-1.82;67.89;99909.96;1704775;82;21177;-69
2022/01/27 03:14:21;;;;;;;35.97;20.40;;;;;;;-1.82;68.02;99901.56;1720121;82;20971;-70
2022/01/27 03:16:49;;;;;;;43.63;26.70;;;;;;;-1.75;67.92;99901.73;1738828;82;21134;-69
2022/01/27 03:19:17;;;;;;;41.00;24.23;;;;;;;-1.77;67.87;99895.30;1699854;83;21058;-68
2022/01/27 03:21:43;;;;;;;61.10;30.97;;;;;;;-1.84;67.86;99892.19;1733704;82;21480;-70
2022/01/27 03:24:10;;;;;;;35.13;23.60;;;;;;;-1.93;68.05;99892.69;1699912;83;21869;-70
2022/01/27 03:26:36;;;;;;;42.47;24.63;;;;;;;-1.93;68.16;99895.81;1692854;83;21006;-69
2022/01/27 03:29:03;;;;;;;46.47;26.93;;;;;;;-2.02;68.17;99889.73;1726129;83;21116;-71
2022/01/27 03:31:29;;;;;;;41.97;24.13;;;;;;;-2.03;68.49;99889.39;1700971;83;21023;-71
2022/01/27 03:33:56;;;;;;;46.43;26.83;;;;;;;-1.97;68.37;99897.14;1725048;83;21079;-71
2022/01/27 03:36:22;;;;;;;61.17;34.60;;;;;;;-1.93;68.31;99887.42;1728871;82;21115;-72
2022/01/27 03:38:49;;;;;;;42.13;25.23;;;;;;;-1.91;68.25;99880.16;1743676;82;20960;-69
2022/01/27 03:41:19;;;;;;;47.50;28.50;;;;;;;-1.87;68.27;99875.40;1741040;81;20959;-71
2022/01/27 03:43:43;;;;;;;38.57;24.40;;;;;;;-1.88;68.25;99876.38;1746050;81;20972;-72
2022/01/27 03:46:09;;;;;;;40.27;24.13;;;;;;;-1.85;68.26;99868.95;1706081;82;21057;-68
2022/01/27 03:48:35;;;;;;;42.97;25.17;;;;;;;-1.79;68.14;99865.66;1727097;82;21116;-69
2022/01/27 03:51:03;;;;;;;38.70;22.33;;;;;;;-1.74;68.02;99865.66;1700408;83;20976;-70
2022/01/27 03:53:30;;;;;;;38.07;22.70;;;;;;;-1.69;67.90;99858.91;1698858;83;21006;-69
2022/01/27 03:55:57;;;;;;;38.37;21.47;;;;;;;-1.74;67.75;99848.03;1648598;85;21056;-70
2022/01/27 03:58:23;;;;;;;46.13;25.80;;;;;;;-1.74;67.63;99849.84;1736915;82;21078;-71
2022/01/27 04:00:50;;;;;;;44.03;25.93;;;;;;;-1.69;67.57;99851.48;1690296;84;22399;-70
2022/01/27 04:03:18;;;;;;;38.60;24.40;;;;;;;-1.66;67.50;99852.45;1710972;82;21050;-70
2022/01/27 04:05:52;;;;;;;42.77;26.13;;;;;;;-1.66;67.25;99853.77;1726238;83;21015;-69
2022/01/27 04:08:13;;;;;;;45.10;25.10;;;;;;;-1.65;67.27;99855.42;1731084;82;21007;-70
2022/01/27 04:10:40;;;;;;;44.13;24.77;;;;;;;-1.68;67.18;99850.50;1725660;83;21030;-70
2022/01/27 04:13:07;;;;;;;43.87;23.03;;;;;;;-1.67;67.17;99850.80;1743674;82;21100;-69
2022/01/27 04:15:35;;;;;;;45.63;26.27;;;;;;;-1.65;67.13;99847.52;1743644;82;20960;-69
2022/01/27 04:18:02;;;;;;;37.17;22.63;;;;;;;-1.65;67.03;99850.16;1739595;82;21079;-69
2022/01/27 04:20:28;;;;;;;40.73;25.07;;;;;;;-1.64;67.02;99852.63;1728138;82;21027;-69
2022/01/27 04:22:55;;;;;;;38.13;21.90;;;;;;;-1.65;66.95;99849.66;1690307;83;21042;-71
2022/01/27 04:25:21;;;;;;;38.90;23.60;;;;;;;-1.66;66.89;99849.33;1720435;82;21963;-69
2022/01/27 04:27:52;;;;;;;46.97;27.23;;;;;;;-1.68;66.84;99848.69;1692230;84;22205;-70
2022/01/27 04:30:18;;;;;;;39.13;22.13;;;;;;;-1.73;66.86;99843.09;1697615;83;21529;-68
2022/01/27 04:32:52;;;;;;;46.47;26.43;;;;;;;-1.75;66.83;99842.42;1708424;83;21012;-70
2022/01/27 04:35:17;;;;;;;32.93;20.17;;;;;;;-1.79;66.82;99847.22;1699672;83;21008;-69
2022/01/27 04:37:54;;;;;;;42.20;24.97;;;;;;;-1.77;66.87;99845.70;1725049;83;21567;-69
2022/01/27 04:40:15;;;;;;;38.37;21.27;;;;;;;-1.84;66.79;99844.75;1741453;82;21021;-71
2022/01/27 04:42:52;;;;;;;36.33;19.77;;;;;;;-1.97;66.97;99844.44;1671504;83;21106;-69
2022/01/27 04:45:10;;;;;;;39.57;21.20;;;;;;;-2.13;67.35;99846.56;1742244;82;21008;-69
2022/01/27 04:47:42;;;;;;;38.80;22.30;;;;;;;-2.27;67.77;99841.95;1712561;83;21596;-70
2022/01/27 04:50:07;;;;;;;33.30;20.57;;;;;;;-2.42;68.39;99834.36;1723880;83;21150;-69
2022/01/27 04:52:37;;;;;;;36.67;22.63;;;;;;;-2.54;68.85;99827.78;1720251;82;20999;-69
2022/01/27 04:55:08;;;;;;;48.10;24.97;;;;;;;-2.69;69.46;99819.20;1742326;82;21007;-71
2022/01/27 04:57:33;;;;;;;49.60;22.90;;;;;;;-2.86;70.23;99806.16;1736601;82;21117;-70
2022/01/27 05:00:00;;;;;;;34.77;23.40;;;;;;;-3.00;70.63;99810.23;1700298;84;21057;-70
2022/01/27 05:02:39;;;;;;;44.47;25.70;;;;;;;-3.13;71.10;99814.64;1727231;82;21227;-68
2022/01/27 05:04:54;;;;;;;39.67;23.37;;;;;;;-3.15;71.23;99817.91;1697832;83;21035;-71
2022/01/27 05:07:20;;;;;;;39.93;22.43;;;;;;;-3.10;71.37;99829.27;1731654;82;21106;-70
2022/01/27 05:09:56;;;;;;;36.53;21.00;;;;;;;-2.98;71.33;99816.66;1705282;83;21027;-70
2022/01/27 05:12:34;;;;;;;30.00;17.43;;;;;;;-2.87;71.13;99818.48;1671734;85;21531;-69
2022/01/27 05:14:50;;;;;;;32.97;20.20;;;;;;;-2.79;70.83;99821.64;1704109;82;21148;-69
2022/01/27 05:17:18;;;;;;;33.20;18.90;;;;;;;-2.87;70.53;99825.06;1738499;82;20943;-70
2022/01/27 05:19:47;;;;;;;30.13;16.80;;;;;;;-2.89;70.60;99827.05;1700500;83;20970;-70
2022/01/27 05:22:13;;;;;;;29.83;19.40;;;;;;;-2.88;70.52;99827.39;1719163;82;21532;-71
2022/01/27 05:24:40;;;;;;;26.10;15.77;;;;;;;-2.82;70.51;99828.53;1733295;82;20948;-69
2022/01/27 05:27:06;;;;;;;31.60;18.30;;;;;;;-2.79;70.22;99825.11;1702921;83;21063;-70
2022/01/27 05:29:33;;;;;;;30.53;15.57;;;;;;;-2.79;70.06;99825.11;1743805;82;22257;-72
2022/01/27 05:31:59;;;;;;;28.57;16.97;;;;;;;-2.79;69.82;99827.73;1720724;82;21026;-72
2022/01/27 05:34:25;;;;;;;41.50;20.47;;;;;;;-2.83;69.72;99832.17;1743059;81;21085;-73
2022/01/27 05:36:51;;;;;;;31.37;18.77;;;;;;;-2.86;69.73;99825.40;1714011;83;21090;-71
2022/01/27 05:39:18;;;;;;;34.57;17.57;;;;;;;-2.86;69.62;99824.58;1743779;82;21228;-74
2022/01/27 05:41:44;;;;;;;32.57;16.67;;;;;;;-2.96;69.61;99819.45;1743000;82;21591;-71
2022/01/27 05:44:11;;;;;;;29.40;17.80;;;;;;;-3.09;69.81;99812.02;1677207;84;21607;-72
2022/01/27 05:46:38;;;;;;;21.57;13.03;;;;;;;-3.14;70.06;99814.80;1714305;82;21074;-69
2022/01/27 05:49:05;;;;;;;28.83;16.00;;;;;;;-3.13;69.91;99813.33;1704191;82;21007;-73
2022/01/27 05:51:34;;;;;;;27.97;15.57;;;;;;;-3.15;69.93;99821.86;1714299;83;21469;-71
2022/01/27 05:54:01;;;;;;;25.23;15.10;;;;;;;-3.07;69.92;99828.14;1714352;82;20983;-72
2022/01/27 05:56:27;;;;;;;25.23;14.40;;;;;;;-3.00;69.76;99823.39;1714348;83;21127;-70
2022/01/27 05:58:54;;;;;;;21.10;13.33;;;;;;;-2.94;69.48;99828.02;1714719;83;21035;-70
2022/01/27 06:01:20;;;;;;;17.80;13.00;;;;;;;-2.91;69.33;99825.05;1714398;83;21078;-70
2022/01/27 06:03:46;;;;;;;22.77;13.53;;;;;;;-2.89;69.13;99824.91;1695742;83;21100;-70
2022/01/27 06:06:14;;;;;;;20.70;12.97;;;;;;;-2.91;68.97;99817.16;1714264;83;20952;-69
2022/01/27 06:08:41;;;;;;;19.47;13.10;;;;;;;-2.89;68.83;99816.52;1714256;82;20970;-70
2022/01/27 06:11:07;;;;;;;21.00;13.30;;;;;;;-2.90;68.66;99819.30;1703920;83;21002;-71
2022/01/27 06:13:36;;;;;;;25.87;16.13;;;;;;;-2.98;68.63;99812.72;1714459;82;21022;-72
2022/01/27 06:16:09;;;;;;;23.00;14.20;;;;;;;-2.98;68.77;99814.86;1713413;82;21925;-71
2022/01/27 06:18:31;;;;;;;17.27;10.60;;;;;;;-2.96;68.67;99809.41;1713807;82;21105;-73
2022/01/27 06:21:00;;;;;;;22.13;14.57;;;;;;;-2.93;68.66;99809.11;1702883;83;21078;-71
2022/01/27 06:23:25;;;;;;;24.63;14.70;;;;;;;-2.93;68.58;99818.32;1711807;83;21099;-69
2022/01/27 06:25:51;;;;;;;20.17;13.20;;;;;;;-2.90;68.61;99815.36;1688828;82;21034;-70
2022/01/27 06:28:18;;;;;;;20.10;12.37;;;;;;;-2.88;68.56;99799.76;1727582;82;21137;-71
2022/01/27 06:30:44;;;;;;;26.87;15.47;;;;;;;-2.99;68.59;99801.36;1703983;83;21038;-71
2022/01/27 06:33:11;;;;;;;25.73;14.27;;;;;;;-3.04;68.94;99803.65;1714243;83;21070;-76
2022/01/27 06:35:38;;;;;;;14.83;10.47;;;;;;;-3.05;69.05;99799.86;1684186;85;21494;-74
2022/01/27 06:38:04;;;;;;;18.40;12.60;;;;;;;-3.13;69.11;99800.66;1694978;83;21036;-70
2022/01/27 06:40:31;;;;;;;19.93;13.17;;;;;;;-3.24;69.67;99797.00;1681112;83;21190;-69
2022/01/27 06:42:57;;;;;;;18.10;12.07;;;;;;;-3.23;69.99;99790.28;1700900;82;21070;-73
2022/01/27 06:45:23;;;;;;;18.13;12.10;;;;;;;-3.23;70.12;99787.65;1726810;81;21024;-71
2022/01/27 06:47:52;;;;;;;21.33;12.20;;;;;;;-3.23;70.20;99780.25;1685443;84;21063;-73
2022/01/27 06:50:19;;;;;;;19.40;13.60;;;;;;;-3.28;70.35;99783.84;1704531;83;20955;-73
2022/01/27 06:52:45;;;;;;;21.10;15.43;;;;;;;-3.33;70.86;99783.00;1742876;82;21096;-72
2022/01/27 06:55:13;;;;;;;20.63;12.43;;;;;;;-3.38;71.24;99786.60;1727072;82;21031;-75
2022/01/27 06:57:40;;;;;;;17.00;10.67;;;;;;;-3.35;71.19;99786.76;1725631;83;21073;-75
2022/01/27 07:00:09;;;;;;;19.50;12.70;;;;;;;-3.34;71.21;99783.98;1679514;82;21099;-72
2022/01/27 07:02:35;;;;;;;18.77;12.03;;;;;;;-3.24;71.13;99785.99;1681928;83;20994;-72
2022/01/27 07:05:01;;;;;;;24.50;14.60;;;;;;;-3.13;71.11;99787.52;1723710;83;21025;-70
2022/01/27 07:07:28;;;;;;;23.60;13.07;;;;;;;-3.00;71.06;99775.20;1725911;82;20986;-71
2022/01/27 07:09:54;;;;;;;21.77;12.40;;;;;;;-2.89;70.93;99777.55;1675785;83;21055;-71
2022/01/27 07:12:21;;;;;;;18.77;12.60;;;;;;;-2.81;70.62;99778.86;1731423;82;21391;-71
2022/01/27 07:14:47;;;;;;;22.83;13.70;;;;;;;-2.74;70.46;99769.35;1732968;81;21512;-74
2022/01/27 07:17:17;;;;;;;26.30;14.70;;;;;;;-2.66;70.47;99771.98;1730817;82;21876;-71
2022/01/27 07:19:43;;;;;;;36.40;18.63;;;;;;;-2.64;70.22;99770.02;1743558;82;22239;-71
2022/01/27 07:22:09;;;;;;;30.63;19.13;;;;;;;-2.69;70.30;99763.11;1729171;82;21730;-76
2022/01/27 07:24:35;;;;;;;33.37;19.07;;;;;;;-2.72;70.22;99765.55;1720423;82;21024;-74
2022/01/27 07:27:04;;;;;;;23.17;15.00;;;;;;;-2.83;70.50;99764.55;1743741;82;21007;-75
2022/01/27 07:29:31;;;;;;;19.70;13.03;;;;;;;-2.85;70.85;99761.27;1745130;82;21949;-74
2022/01/27 07:31:57;;;;;;;24.50;14.50;;;;;;;-2.84;71.02;99756.34;1712434;82;22186;-74
2022/01/27 07:34:23;;;;;;;21.13;13.97;;;;;;;-2.82;71.26;99762.73;1701023;83;21063;-72
2022/01/27 07:36:54;;;;;;;26.60;14.60;;;;;;;-2.82;71.73;99758.80;1700074;84;21023;-77
2022/01/27 07:39:18;;;;;;;19.03;12.70;;;;;;;-2.83;71.85;99755.33;1725572;83;21094;-75
2022/01/27 07:41:45;;;;;;;23.43;16.97;;;;;;;-2.77;72.03;99756.00;1700387;83;21581;-74
2022/01/27 07:44:12;;;;;;;19.33;13.90;;;;;;;-2.66;72.06;99754.88;1718487;82;21076;-75
2022/01/27 07:46:39;;;;;;;27.33;16.50;;;;;;;-2.50;72.01;99743.53;1736862;82;21099;-72
2022/01/27 07:49:05;;;;;;;25.60;13.57;;;;;;;-2.49;71.68;99741.20;1737032;82;21048;-71
2022/01/27 07:51:32;;;;;;;21.73;11.20;;;;;;;-2.56;71.92;99734.97;1693268;82;21092;-72
2022/01/27 07:53:58;;;;;;;19.33;14.37;;;;;;;-2.67;72.48;99732.98;1717872;82;21090;-75
2022/01/27 07:56:24;;;;;;;30.87;16.30;;;;;;;-2.66;72.69;99743.85;1736758;82;20992;-75
2022/01/27 07:58:51;;;;;;;22.10;14.33;;;;;;;-2.66;72.86;99739.08;1736885;82;21136;-74
2022/01/27 08:01:17;;;;;;;24.07;14.93;;;;;;;-2.60;72.98;99733.66;1707587;83;20968;-73
2022/01/27 08:03:43;;;;;;;27.07;14.67;;;;;;;-2.52;73.01;99735.79;1685260;83;21087;-73
2022/01/27 08:06:10;;;;;;;18.93;15.43;;;;;;;-2.41;73.06;99742.05;1724416;83;21807;-75
2022/01/27 08:08:36;;;;;;;26.83;13.43;;;;;;;-2.30;72.89;99732.47;1724416;83;20947;-74
2022/01/27 08:11:03;;;;;;;20.93;13.00;;;;;;;-2.21;72.88;99734.63;1724762;83;20962;-77
2022/01/27 08:13:29;;;;;;;19.37;12.20;;;;;;;-2.11;72.80;99720.75;1705798;82;21032;-76
2022/01/27 08:15:57;;;;;;;18.23;13.00;;;;;;;-2.00;72.82;99723.04;1737028;82;21560;-77
2022/01/27 08:18:23;;;;;;;20.03;13.33;;;;;;;-1.94;72.84;99720.23;1737019;82;21106;-75
2022/01/27 08:20:50;;;;;;;20.67;12.97;;;;;;;-1.88;72.85;99718.25;1736994;82;21039;-74
2022/01/27 08:23:20;;;;;;;21.47;12.63;;;;;;;-1.82;72.78;99709.64;1735819;82;22273;-73
2022/01/27 08:26:00;;;;;;;20.33;13.37;;;;;;;-1.70;72.82;99715.38;1705739;84;21238;-74
2022/01/27 08:28:28;;;;;;;21.20;13.60;;;;;;;-1.66;72.52;99711.41;1721955;83;20995;-76
2022/01/27 08:30:50;;;;;;;23.00;13.67;;;;;;;-1.66;72.43;99717.50;1723109;83;21255;-78
2022/01/27 08:33:17;;;;;;;22.27;15.03;;;;;;;-1.67;72.37;99718.48;1724874;82;21019;-75
2022/01/27 08:35:42;;;;;;;22.27;13.53;;;;;;;-1.65;72.44;99720.96;1737086;82;20948;-76
2022/01/27 08:38:09;;;;;;;23.87;15.37;;;;;;;-1.62;72.50;99720.11;1737129;82;21040;-75
2022/01/27 08:40:36;;;;;;;22.53;13.50;;;;;;;-1.55;72.61;99717.63;1737313;82;21040;-74
2022/01/27 08:43:04;;;;;;;25.63;15.47;;;;;;;-1.50;72.44;99705.58;1718527;82;21791;-74
2022/01/27 08:45:30;;;;;;;23.90;15.73;;;;;;;-1.45;72.40;99703.25;1725027;82;20995;-76
2022/01/27 08:47:58;;;;;;;25.63;15.97;;;;;;;-1.37;72.24;99699.73;1693527;84;20967;-75
2022/01/27 08:50:25;;;;;;;29.50;15.57;;;;;;;-1.32;72.00;99698.22;1724699;83;21107;-75
2022/01/27 08:52:53;;;;;;;23.07;15.43;;;;;;;-1.30;71.91;99701.19;1724471;83;21069;-75
2022/01/27 08:55:21;;;;;;;31.37;19.20;;;;;;;-1.32;71.79;99698.72;1724970;82;21187;-75
2022/01/27 08:57:49;;;;;;;32.47;18.70;;;;;;;-1.35;71.91;99696.44;1724633;83;21094;-74
2022/01/27 09:00:16;;;;;;;40.30;22.13;;;;;;;-1.38;72.04;99693.63;1724360;82;21030;-75
2022/01/27 09:02:44;;;;;;;34.03;21.27;;;;;;;-1.36;72.28;99682.91;1724588;83;20983;-75
2022/01/27 09:05:10;;;;;;;33.27;19.63;;;;;;;-1.39;72.41;99684.59;1688204;82;21012;-76
2022/01/27 09:07:36;;;;;;;31.60;19.03;;;;;;;-1.35;72.62;99691.16;1718257;82;21038;-73
2022/01/27 09:10:05;;;;;;;26.60;17.97;;;;;;;-1.25;72.76;99686.49;1694026;82;20980;-76
2022/01/27 09:12:32;;;;;;;27.43;16.77;;;;;;;-1.23;72.55;99680.52;1742609;82;21087;-77
2022/01/27 09:15:03;;;;;;;21.80;13.87;;;;;;;-1.28;72.65;99677.59;1728097;82;21674;-77
2022/01/27 09:17:38;;;;;;;22.57;15.40;;;;;;;-1.32;73.02;99669.70;1694218;84;21512;-75
2022/01/27 09:20:00;;;;;;;25.30;15.67;;;;;;;-1.31;73.35;99680.58;1723711;83;21143;-76
2022/01/27 09:22:27;;;;;;;19.27;13.93;;;;;;;-1.30;73.66;99670.36;1703692;83;21069;-76
2022/01/27 09:24:58;;;;;;;22.57;14.73;;;;;;;-1.31;73.94;99663.44;1732619;82;21055;-74
2022/01/27 09:27:23;;;;;;;21.37;13.10;;;;;;;-1.27;74.23;99657.30;1737310;82;21064;-77
2022/01/27 09:29:51;;;;;;;25.07;13.43;;;;;;;-1.26;74.50;99653.67;1737367;82;21099;-79
2022/01/27 09:32:18;;;;;;;20.63;13.47;;;;;;;-1.30;74.98;99647.11;1737420;82;21247;-75
2022/01/27 09:34:46;;;;;;;20.23;12.57;;;;;;;-1.30;75.16;99648.43;1717751;82;21010;-79
2022/01/27 09:37:12;;;;;;;20.27;12.37;;;;;;;-1.26;75.51;99649.72;1737395;82;22350;-75
2022/01/27 09:39:38;;;;;;;17.20;11.67;;;;;;;-1.31;75.89;99650.24;1717636;82;21053;-76
2022/01/27 09:42:06;;;;;;;21.03;12.73;;;;;;;-1.30;76.29;99651.07;1707082;83;21057;-74
2022/01/27 09:44:33;;;;;;;24.57;13.83;;;;;;;-1.23;76.45;99650.19;1673891;84;21996;-72
2022/01/27 09:47:05;;;;;;;19.17;13.33;;;;;;;-1.14;76.44;99647.81;1677409;83;21277;-75
2022/01/27 09:49:42;;;;;;;20.97;11.63;;;;;;;-1.13;76.45;99652.59;1717617;81;21006;-79
2022/01/27 09:52:04;;;;;;;18.67;14.60;;;;;;;-1.16;76.92;99650.31;1696918;83;21069;-78
2022/01/27 09:54:31;;;;;;;19.40;13.13;;;;;;;-1.19;77.11;99644.88;1719242;83;20974;-87
2022/01/27 09:56:57;;;;;;;20.90;13.93;;;;;;;-1.11;77.60;99642.20;1711287;83;21709;-90
2022/01/27 09:59:25;;;;;;;28.30;15.47;;;;;;;-1.08;77.80;99642.33;1687099;83;20974;-86
2022/01/27 10:02:07;;;;;;;25.43;14.60;;;;;;;-1.08;78.21;99639.69;1692809;83;21034;-81
2022/01/27 10:04:59;;;;;;;29.60;15.33;;;;;;;-1.10;78.57;99635.90;1689497;83;21533;-81
2022/01/27 10:07:40;;;;;;;23.98;15.60;;;;;;;-1.15;78.98;99628.22;1721977;81;21102;-86
2022/01/27 10:10:15;;;;;;;24.70;15.43;;;;;;;-1.20;79.46;99626.08;1677823;83;21731;-88
2022/01/27 10:12:50;;;;;;;21.63;14.60;;;;;;;-1.19;79.77;99633.00;1722405;83;20990;-85
2022/01/27 10:15:21;;;;;;;21.87;15.00;;;;;;;-1.15;79.88;99622.94;1722656;83;21515;-88
2022/01/27 10:18:16;;;;;;;20.37;12.93;;;;;;;-1.12;79.88;99620.76;1722804;83;20955;-92
2022/01/27 10:20:52;;;;;;;18.60;13.23;;;;;;;-1.07;79.74;99618.91;1725279;83;21549;-84
2022/01/27 10:23:22;;;;;;;26.37;15.40;;;;;;;-1.05;79.75;99612.44;1721352;82;21713;-80
2022/01/27 10:25:55;;;;;;;25.03;15.57;;;;;;;-1.03;79.94;99616.23;1689298;83;20947;-80
2022/01/27 10:28:34;;;;;;;21.65;15.53;;;;;;;-0.98;79.93;99609.92;1719536;81;20982;-82
2022/01/27 10:31:23;;;;;;;25.03;15.53;;;;;;;-0.91;79.80;99605.56;1713284;83;21074;-82
2022/01/27 10:34:01;;;;;;;24.50;15.05;;;;;;;-0.92;79.83;99603.94;1701169;82;21006;-76
2022/01/27 10:36:40;;;;;;;25.87;16.23;;;;;;;-0.93;80.22;99604.94;1695399;83;21169;-78
2022/01/27 10:39:15;;;;;;;26.30;13.73;;;;;;;-0.91;80.41;99598.96;1695946;83;21066;-77
2022/01/27 10:42:06;;;;;;;25.10;17.03;;;;;;;-0.75;80.54;99596.69;1700803;83;20971;-76
2022/01/27 10:44:55;;;;;;;24.33;14.97;;;;;;;-0.69;80.51;99587.55;1671199;82;26116;-76
2022/01/27 10:47:21;;;;;;;19.97;14.07;;;;;;;-0.65;80.67;99585.37;1710927;83;21566;-76
2022/01/27 10:49:56;;;;;;;22.50;14.50;;;;;;;-0.62;80.98;99577.89;1720518;81;22858;-81
2022/01/27 10:52:28;;;;;;;23.20;15.37;;;;;;;-0.58;81.45;99578.38;1687834;83;21073;-78
2022/01/27 10:54:57;;;;;;;27.23;16.93;;;;;;;-0.56;81.65;99573.72;1690607;83;21029;-77
2022/01/27 10:57:27;;;;;;;22.33;16.17;;;;;;;-0.49;81.81;99568.86;1719115;81;21572;-74
2022/01/27 11:00:14;;;;;;;29.83;16.83;;;;;;;-0.47;81.90;99568.16;1711422;83;21085;-78
2022/01/27 11:02:53;;;;;;;28.73;19.87;;;;;;;-0.48;82.04;99567.05;1697350;83;21193;-84
2022/01/27 11:05:23;;;;;;;28.43;16.83;;;;;;;-0.48;82.47;99561.77;1725304;82;21498;-82
2022/01/27 11:07:50;;;;;;;27.20;16.90;;;;;;;-0.47;82.63;99571.30;1710234;82;21076;-80
2022/01/27 11:10:17;;;;;;;29.50;19.40;;;;;;;-0.48;82.87;99573.12;1721088;81;21133;-78
2022/01/27 11:12:45;;;;;;;30.73;17.80;;;;;;;-0.54;83.23;99565.95;1691524;83;21123;-75
2022/01/27 11:15:17;;;;;;;28.07;18.60;;;;;;;-0.56;83.46;99567.94;1717477;81;21330;-79
2022/01/27 11:17:45;;;;;;;28.67;18.07;;;;;;;-0.55;84.05;99564.30;1693258;83;21520;-75
2022/01/27 11:20:49;;;;;;;29.83;17.13;;;;;;;-0.57;84.29;99568.10;1724481;82;21599;-79
2022/01/27 11:25:52;;;;;;;41.63;23.63;;;;;;;-0.53;84.62;99557.52;1719704;81;22470;-75
2022/01/27 11:28:20;;;;;;;30.60;19.53;;;;;;;-0.54;84.75;99552.73;1695263;83;21269;-74
2022/01/27 11:31:14;;;;;;;46.73;25.43;;;;;;;-0.48;85.05;99557.27;1697413;82;20995;-79
2022/01/27 11:33:40;;;;;;;37.98;20.95;;;;;;;-0.42;85.09;99553.58;1669365;83;24013;-77
2022/01/27 11:36:18;;;;;;;30.13;19.63;;;;;;;-0.34;85.02;99551.69;1697452;82;21102;-85
2022/01/27 11:38:45;;;;;;;27.20;19.33;;;;;;;-0.30;84.89;99544.20;1714562;81;21062;-80
2022/01/27 11:41:36;;;;;;;27.57;18.20;;;;;;;-0.22;85.01;99542.28;1712725;81;21115;-79
2022/01/27 11:44:34;;;;;;;25.10;16.10;;;;;;;-0.11;84.97;99543.14;1709635;83;20994;-82
2022/01/27 11:47:17;;;;;;;28.00;20.20;;;;;;;-0.07;84.63;99549.69;1694963;83;20991;-77
2022/01/27 11:50:27;;;;;;;25.25;18.00;;;;;;;-0.16;84.66;99540.73;1699648;83;21075;-79
2022/01/27 11:52:52;;;;;;;23.70;15.60;;;;;;;-0.16;84.66;99540.73;1697122;81;21075;-78
2022/01/27 11:55:30;;;;;;;27.20;17.33;;;;;;;-0.09;84.79;99545.08;1697957;83;21105;-81
2022/01/27 11:57:59;;;;;;;27.17;19.77;;;;;;;-0.05;84.65;99541.05;1724056;81;21058;-84
2022/01/27 12:00:28;;;;;;;28.83;18.43;;;;;;;-0.01;84.48;99535.74;1698012;83;21008;-79
2022/01/27 12:03:08;;;;;;;24.40;18.63;;;;;;;-0.02;84.21;99531.95;1724238;81;21055;-74
2022/01/27 12:05:39;;;;;;;22.47;15.87;;;;;;;0.00;84.21;99525.46;1725871;83;20970;-78